![]() |
EMODnet Physics ERDDAP
Easier access to scientific data |
log in|
Brought to you by EMODnet Physics |
| Dataset Title: | NDBC - Collection of dew point temperature (DEWT) TimeSeries - IN SITU MultiPointTimeSeriesObservation
|
| Institution: | NDBC (Dataset ID: TS_DEWT_NDBC) |
| Information: | Summary
| License
| FGDC
| ISO 19115
| Metadata
| Background
| Subset
| Data Access Form
| Make a graph
|
| Name | Last modified | Size | Description | |
|---|---|---|---|---|
| Parent Directory | - | - | ||
| GIXA2_TS_DEWT_012018.nc | 27-Oct-2024 10:43 | 1190396 | ||
| GIXA2_TS_DEWT_012019.nc | 27-Oct-2024 10:43 | 1263367 | ||
| GIXA2_TS_DEWT_012020.nc | 27-Oct-2024 10:43 | 1239439 | ||
| GIXA2_TS_DEWT_012021.nc | 27-Oct-2024 10:43 | 1105876 | ||
| GIXA2_TS_DEWT_012022.nc | 27-Oct-2024 10:43 | 1266928 | ||
| GIXA2_TS_DEWT_012023.nc | 27-Oct-2024 10:43 | 1266042 | ||
| GIXA2_TS_DEWT_012024.nc | 27-Oct-2024 10:43 | 1259023 | ||
| GIXA2_TS_DEWT_012025.nc | 07-Feb-2025 11:40 | 4725295 | ||
| GIXA2_TS_DEWT_012026.nc | 02-Feb-2026 18:08 | 429680 | ||
| GIXA2_TS_DEWT_022018.nc | 27-Oct-2024 10:43 | 429679 | ||
| GIXA2_TS_DEWT_022019.nc | 27-Oct-2024 10:43 | 429677 | ||
| GIXA2_TS_DEWT_022020.nc | 27-Oct-2024 10:43 | 429672 | ||
| GIXA2_TS_DEWT_022021.nc | 27-Oct-2024 10:43 | 429675 | ||
| GIXA2_TS_DEWT_022022.nc | 27-Oct-2024 10:43 | 428149 | ||
| GIXA2_TS_DEWT_022023.nc | 27-Oct-2024 10:43 | 429685 | ||
| GIXA2_TS_DEWT_022024.nc | 16-Sep-2024 16:51 | 429690 | ||
| GIXA2_TS_DEWT_022025.nc | 01-Mar-2025 06:04 | 429662 | ||
| GIXA2_TS_DEWT_022026.nc | 01-Mar-2026 07:02 | 429675 | ||
| GIXA2_TS_DEWT_032018.nc | 27-Oct-2024 10:43 | 429694 | ||
| GIXA2_TS_DEWT_032019.nc | 27-Oct-2024 10:43 | 429612 | ||
| GIXA2_TS_DEWT_032020.nc | 27-Oct-2024 10:43 | 429684 | ||
| GIXA2_TS_DEWT_032021.nc | 27-Oct-2024 10:43 | 429691 | ||
| GIXA2_TS_DEWT_032022.nc | 27-Oct-2024 10:44 | 429684 | ||
| GIXA2_TS_DEWT_032023.nc | 27-Oct-2024 10:44 | 450096 | ||
| GIXA2_TS_DEWT_032025.nc | 02-Apr-2025 04:50 | 450962 | ||
| GIXA2_TS_DEWT_032026.nc | 23-Mar-2026 08:12 | 429686 | ||
| GIXA2_TS_DEWT_042018.nc | 27-Oct-2024 10:44 | 429691 | ||
| GIXA2_TS_DEWT_042019.nc | 27-Oct-2024 10:44 | 429695 | ||
| GIXA2_TS_DEWT_042020.nc | 27-Oct-2024 10:44 | 429859 | ||
| GIXA2_TS_DEWT_042021.nc | 27-Oct-2024 10:44 | 429907 | ||
| GIXA2_TS_DEWT_042022.nc | 27-Oct-2024 10:44 | 429909 | ||
| GIXA2_TS_DEWT_042023.nc | 27-Oct-2024 10:44 | 429906 | ||
| GIXA2_TS_DEWT_042025.nc | 01-May-2025 05:17 | 450218 | ||
| GIXA2_TS_DEWT_052018.nc | 27-Oct-2024 10:44 | 450232 | ||
| GIXA2_TS_DEWT_052019.nc | 27-Oct-2024 10:44 | 429906 | ||
| GIXA2_TS_DEWT_052020.nc | 27-Oct-2024 10:44 | 429910 | ||
| GIXA2_TS_DEWT_052021.nc | 27-Oct-2024 10:44 | 450356 | ||
| GIXA2_TS_DEWT_052022.nc | 27-Oct-2024 10:44 | 450848 | ||
| GIXA2_TS_DEWT_052023.nc | 27-Oct-2024 10:45 | 449303 | ||
| GIXA2_TS_DEWT_052025.nc | 01-Jun-2025 05:14 | 1263442 | ||
| GIXA2_TS_DEWT_062018.nc | 27-Oct-2024 10:45 | 1143189 | ||
| GIXA2_TS_DEWT_062019.nc | 27-Oct-2024 10:45 | 1261673 | ||
| GIXA2_TS_DEWT_062020.nc | 27-Oct-2024 10:45 | 1226168 | ||
| GIXA2_TS_DEWT_062021.nc | 27-Oct-2024 10:45 | 1263732 | ||
| GIXA2_TS_DEWT_062023.nc | 27-Oct-2024 10:45 | 1266163 | ||
| GIXA2_TS_DEWT_062025.nc | 17-Jun-2025 04:27 | 1263551 | ||
| GIXA2_TS_DEWT_072019.nc | 27-Oct-2024 10:45 | 5700518 | ||
| GIXA2_TS_DEWT_072020.nc | 27-Oct-2024 10:45 | 429350 | ||
| GIXA2_TS_DEWT_072021.nc | 27-Oct-2024 10:45 | 429345 | ||
| GIXA2_TS_DEWT_072022.nc | 27-Oct-2024 10:45 | 429330 | ||
| GIXA2_TS_DEWT_072023.nc | 27-Oct-2024 10:45 | 429348 | ||
| GIXA2_TS_DEWT_072025.nc | 16-Aug-2025 07:24 | 429338 | ||
| GIXA2_TS_DEWT_082019.nc | 27-Oct-2024 10:45 | 429367 | ||
| GIXA2_TS_DEWT_082020.nc | 27-Oct-2024 10:45 | 428451 | ||
| GIXA2_TS_DEWT_082021.nc | 27-Oct-2024 10:45 | 429361 | ||
| GIXA2_TS_DEWT_082022.nc | 27-Oct-2024 10:45 | 429355 | ||
| GIXA2_TS_DEWT_082023.nc | 27-Oct-2024 10:46 | 429339 | ||
| GIXA2_TS_DEWT_082025.nc | 01-Sep-2025 07:40 | 429307 | ||
| GIXA2_TS_DEWT_092019.nc | 27-Oct-2024 10:46 | 429348 | ||
| GIXA2_TS_DEWT_092020.nc | 27-Oct-2024 10:46 | 429360 | ||
| GIXA2_TS_DEWT_092021.nc | 27-Oct-2024 10:46 | 429366 | ||
| GIXA2_TS_DEWT_092022.nc | 27-Oct-2024 10:46 | 449870 | ||
| GIXA2_TS_DEWT_092023.nc | 27-Oct-2024 10:46 | 449278 | ||
| GIXA2_TS_DEWT_092025.nc | 01-Oct-2025 07:45 | 429365 | ||
| GIXA2_TS_DEWT_102018.nc | 27-Oct-2024 10:46 | 429357 | ||
| GIXA2_TS_DEWT_102019.nc | 27-Oct-2024 10:46 | 429361 | ||
| GIXA2_TS_DEWT_102020.nc | 27-Oct-2024 10:46 | 429562 | ||
| GIXA2_TS_DEWT_102021.nc | 27-Oct-2024 10:46 | 429569 | ||
| GIXA2_TS_DEWT_102022.nc | 27-Oct-2024 10:46 | 429554 | ||
| GIXA2_TS_DEWT_102023.nc | 27-Oct-2024 10:46 | 429568 | ||
| GIXA2_TS_DEWT_102025.nc | 01-Nov-2025 07:06 | 448531 | ||
| GIXA2_TS_DEWT_112018.nc | 27-Oct-2024 10:46 | 450016 | ||
| GIXA2_TS_DEWT_112019.nc | 27-Oct-2024 10:46 | 429563 | ||
| GIXA2_TS_DEWT_112020.nc | 27-Oct-2024 10:46 | 429567 | ||
| GIXA2_TS_DEWT_112021.nc | 27-Oct-2024 10:46 | 449860 | ||
| GIXA2_TS_DEWT_112022.nc | 27-Oct-2024 10:46 | 449699 | ||
| GIXA2_TS_DEWT_112023.nc | 27-Oct-2024 10:46 | 449107 | ||
| GIXA2_TS_DEWT_112024.nc | 17-Jan-2025 18:18 | 1114715 | ||
| GIXA2_TS_DEWT_112025.nc | 01-Dec-2025 04:25 | 994847 | ||
| GIXA2_TS_DEWT_122017.nc | 27-Oct-2024 10:47 | 1107396 | ||
| GIXA2_TS_DEWT_122018.nc | 27-Oct-2024 10:47 | 1083848 | ||
| GIXA2_TS_DEWT_122019.nc | 27-Oct-2024 10:47 | 1111497 | ||
| GIXA2_TS_DEWT_122020.nc | 27-Oct-2024 10:47 | 1113660 | ||
| GIXA2_TS_DEWT_122021.nc | 27-Oct-2024 10:47 | 1113231 | ||
| GIXA2_TS_DEWT_122022.nc | 27-Oct-2024 10:47 | 1109775 | ||
| GIXA2_TS_DEWT_122023.nc | 27-Oct-2024 10:47 | 4885605 | ||
| GIXA2_TS_DEWT_122024.nc | 22-Jan-2025 18:41 | 429678 | ||
| GIXA2_TS_DEWT_122025.nc | 01-Jan-2026 05:42 | 429681 | ||